KRIL/RIL METAR and TAF weather

Enter ICAO airport designator
Station Type Date Time Source
KRIL METAR 2022/01/26 06:53 UTC NOAA

KRIL 260653Z AUTO 00000KT 10SM OVC029 M06/M09 A3019 RMK AO2 SLP251 T10561094 400221061


Station Type Date Time Source
KRIL Decoded METAR 2022/01/26 06:53 UTC NOAA

RIFLE GARFIELD COUNTY RGNL, CO, United States (KRIL) 39-31N 107-44W 1678M
Jan 26, 2022 - 01:53 AM EST / 2022.01.26 0653 UTC
Wind: Calm:0
Visibility: 10 mile(s):0
Sky conditions: overcast
Temperature: 21.9 F (-5.6 C)
Dew Point: 15.1 F (-9.4 C)
Relative Humidity: 74%
Pressure (altimeter): 30.19 in. Hg (1022 hPa)
ob: KRIL 260653Z AUTO 00000KT 10SM OVC029 M06/M09 A3019 RMK AO2 SLP251 T10561094 400221061
cycle: 7

Station Type Date Time Source
KRIL TAF 2022/01/26 06:36 UTC NOAA

TAF KRIL 260535Z 2606/2706 VRB04KT P6SM BKN024 OVC040
FM261900 27005KT P6SM FEW050
FM270200 VRB03KT P6SM BKN200

Example: see airport list